Time;durP1;ratioP1;P1;durP2;ratioP2;P2;SDS_P1;SDS_P2;PMS_P1;PMS_P2;Temp;Humidity;BMP_temperature;BMP_pressure;BME280_temperature;BME280_humidity;BME280_pressure;Samples;Min_cycle;Max_cycle;Signal;HPM_P1;HPM_P2
2023/12/07 00:01:16;;;;;;;19.03;11.17;;;;;;;5.68;100.00;63524.56;5030264;28;20221;-53
2023/12/07 00:03:41;;;;;;;16.93;10.70;;;;;;;5.76;100.00;63533.84;5030047;28;20311;-54
2023/12/07 00:06:07;;;;;;;20.47;10.90;;;;;;;5.72;100.00;63531.44;5074653;22;20228;-54
2023/12/07 00:08:32;;;;;;;23.27;12.47;;;;;;;5.63;100.00;63516.63;5036177;28;20259;-53
2023/12/07 00:10:57;;;;;;;25.77;12.30;;;;;;;5.66;100.00;63524.88;5035542;28;20205;-55
2023/12/07 00:13:23;;;;;;;23.87;13.03;;;;;;;5.61;100.00;63511.97;5053619;28;20691;-54
2023/12/07 00:15:48;;;;;;;23.30;12.37;;;;;;;5.65;100.00;63521.88;5054169;28;20246;-53
2023/12/07 00:18:14;;;;;;;24.07;13.07;;;;;;;5.62;100.00;63515.53;5053595;28;20216;-54
2023/12/07 00:20:40;;;;;;;21.70;13.03;;;;;;;5.80;100.00;63538.19;5053439;28;20316;-57
2023/12/07 00:23:05;;;;;;;19.77;12.40;;;;;;;5.94;100.00;63552.91;5053402;28;20284;-58
2023/12/07 00:25:31;;;;;;;22.80;13.23;;;;;;;6.03;100.00;63562.19;5053834;28;20212;-60
2023/12/07 00:27:57;;;;;;;25.07;12.27;;;;;;;6.10;100.00;63567.31;5051966;28;20217;-57
2023/12/07 00:30:22;;;;;;;19.00;11.57;;;;;;;6.26;100.00;63582.78;5053278;28;20202;-64
2023/12/07 00:32:48;;;;;;;18.57;11.67;;;;;;;6.34;100.00;63594.00;5053142;28;20208;-52
2023/12/07 00:35:14;;;;;;;18.37;11.40;;;;;;;6.34;100.00;63596.50;5053264;28;20233;-56
2023/12/07 00:37:40;;;;;;;25.40;13.90;;;;;;;6.36;100.00;63595.63;5053139;28;20201;-55
2023/12/07 00:40:07;;;;;;;22.80;12.37;;;;;;;5.91;100.00;63550.19;5053515;28;20197;-55
2023/12/07 00:42:34;;;;;;;24.00;14.40;;;;;;;5.98;100.00;63554.75;5035104;28;20224;-55
2023/12/07 00:45:00;;;;;;;24.03;13.83;;;;;;;5.96;100.00;63552.06;5053416;28;20312;-53
2023/12/07 00:47:26;;;;;;;23.63;12.87;;;;;;;6.00;100.00;63556.94;5052994;28;20202;-54
2023/12/07 00:49:52;;;;;;;21.53;13.20;;;;;;;6.17;100.00;63577.97;5053131;28;20311;-54
2023/12/07 00:52:17;;;;;;;22.70;12.77;;;;;;;6.29;100.00;63591.06;5052846;28;20213;-54
2023/12/07 00:54:44;;;;;;;22.20;12.60;;;;;;;6.23;100.00;63582.00;5052979;28;20221;-54
2023/12/07 00:57:09;;;;;;;23.90;13.97;;;;;;;6.15;100.00;63575.78;5052906;28;20224;-55
2023/12/07 00:59:36;;;;;;;23.37;13.63;;;;;;;5.98;100.00;63557.25;5053300;28;20217;-53
2023/12/07 01:02:04;;;;;;;23.77;14.13;;;;;;;6.08;100.00;63565.66;5053181;28;20215;-58
2023/12/07 01:04:31;;;;;;;24.70;16.27;;;;;;;6.04;100.00;63560.78;5053132;28;20255;-54
2023/12/07 01:06:57;;;;;;;22.83;13.97;;;;;;;5.96;100.00;63554.56;5051642;28;20213;-54
2023/12/07 01:09:22;;;;;;;28.00;16.17;;;;;;;5.99;100.00;63558.38;5052814;28;20267;-55
2023/12/07 01:11:49;;;;;;;28.40;15.80;;;;;;;5.94;100.00;63552.91;5034565;28;20217;-55
2023/12/07 01:14:15;;;;;;;23.57;15.33;;;;;;;6.04;100.00;63558.81;5052700;28;20691;-55
2023/12/07 01:16:41;;;;;;;28.03;15.53;;;;;;;6.16;100.00;63576.34;5034628;28;20296;-55
2023/12/07 01:19:07;;;;;;;27.70;15.30;;;;;;;6.28;100.00;63589.94;5051507;28;20221;-57
2023/12/07 01:21:33;;;;;;;25.57;14.53;;;;;;;5.95;100.00;63551.50;5052346;28;20581;-56
2023/12/07 01:23:58;;;;;;;26.90;14.43;;;;;;;6.03;100.00;63560.22;5052600;28;20713;-55
2023/12/07 01:26:24;;;;;;;28.03;16.67;;;;;;;6.14;100.00;63569.69;5034417;28;20209;-55
2023/12/07 01:28:49;;;;;;;29.40;15.57;;;;;;;6.26;100.00;63587.78;5052277;28;20220;-56
2023/12/07 01:31:15;;;;;;;26.60;15.63;;;;;;;6.34;100.00;63596.50;5052366;28;20202;-55
2023/12/07 01:33:40;;;;;;;26.97;16.07;;;;;;;6.39;100.00;63598.91;5052846;28;20624;-53
2023/12/07 01:36:06;;;;;;;26.50;14.93;;;;;;;6.37;100.00;63597.28;5052927;28;20653;-53
2023/12/07 01:38:32;;;;;;;26.73;15.57;;;;;;;6.42;100.00;63604.69;5052165;28;20228;-53
2023/12/07 01:40:57;;;;;;;26.93;16.07;;;;;;;6.54;100.00;63615.25;5052690;28;20687;-54
2023/12/07 01:43:23;;;;;;;24.67;14.83;;;;;;;6.63;100.00;63625.59;5051367;28;20205;-54
2023/12/07 01:45:53;;;;;;;22.57;14.07;;;;;;;6.66;100.00;63628.88;5052636;28;20201;-53
2023/12/07 01:48:20;;;;;;;24.17;14.57;;;;;;;6.36;100.00;63598.16;5052317;28;20678;-56
2023/12/07 01:50:47;;;;;;;26.40;15.17;;;;;;;5.94;100.00;63550.97;5052345;28;20332;-55
2023/12/07 01:53:15;;;;;;;28.67;15.83;;;;;;;5.66;100.00;63519.91;5052069;28;20209;-52
2023/12/07 01:55:41;;;;;;;32.23;16.60;;;;;;;5.50;100.00;63504.97;5034501;28;20237;-53
2023/12/07 01:58:07;;;;;;;28.77;17.50;;;;;;;5.40;100.00;63491.59;5051762;28;20202;-54
2023/12/07 02:00:34;;;;;;;27.47;16.43;;;;;;;5.30;100.00;63481.25;5051907;28;20219;-53
2023/12/07 02:03:02;;;;;;;26.80;15.93;;;;;;;5.32;100.00;63482.88;5052158;28;20282;-53
2023/12/07 02:05:29;;;;;;;30.70;16.80;;;;;;;5.23;100.00;63475.59;5052103;28;20225;-55
2023/12/07 02:07:54;;;;;;;32.97;17.23;;;;;;;5.23;100.00;63473.09;5051760;28;20205;-53
2023/12/07 02:10:20;;;;;;;30.27;17.97;;;;;;;5.31;100.00;63484.28;5052221;28;20248;-54
2023/12/07 02:12:47;;;;;;;32.77;16.90;;;;;;;5.27;100.00;63475.50;5052010;28;20214;-55
2023/12/07 02:15:13;;;;;;;29.30;17.07;;;;;;;5.33;100.00;63481.47;5033819;28;20209;-54
2023/12/07 02:17:54;;;;;;;32.90;16.70;;;;;;;5.31;100.00;63481.78;5051579;28;20212;-53
2023/12/07 02:20:33;;;;;;;33.63;18.00;;;;;;;5.41;100.00;63492.69;5051507;28;20204;-57
2023/12/07 02:23:05;;;;;;;29.90;18.57;;;;;;;5.39;100.00;63488.56;5051144;28;20209;-56
2023/12/07 02:28:52;;;;;;;31.53;16.00;;;;;;;5.35;100.00;63486.16;5051667;28;20240;-52
2023/12/07 02:31:18;;;;;;;29.50;17.07;;;;;;;5.36;100.00;63487.22;5050707;28;20201;-53
2023/12/07 02:33:44;;;;;;;28.43;16.77;;;;;;;5.49;100.00;63501.94;5051710;28;20209;-54
2023/12/07 02:36:11;;;;;;;28.07;15.87;;;;;;;5.40;100.00;63492.13;5051575;28;20209;-53
2023/12/07 02:38:45;;;;;;;30.07;16.57;;;;;;;5.56;100.00;63509.00;5049803;28;20209;-53
2023/12/07 02:41:11;;;;;;;27.80;15.33;;;;;;;5.58;100.00;63511.19;5051706;28;20598;-54
2023/12/07 02:43:37;;;;;;;31.37;15.83;;;;;;;5.52;100.00;63507.16;5050952;28;20271;-53
2023/12/07 02:46:03;;;;;;;27.17;15.70;;;;;;;5.60;100.00;63513.34;5051099;28;20205;-56
2023/12/07 02:48:29;;;;;;;32.60;17.47;;;;;;;5.61;100.00;63517.50;5050843;28;20205;-54
2023/12/07 02:50:55;;;;;;;31.27;16.00;;;;;;;5.59;100.00;63515.31;5051061;28;20190;-52
2023/12/07 02:53:20;;;;;;;26.30;14.93;;;;;;;5.83;100.00;63540.91;5033313;28;20633;-52
2023/12/07 02:55:46;;;;;;;32.37;16.60;;;;;;;5.87;100.00;63540.84;5051299;28;20271;-51
2023/12/07 02:58:11;;;;;;;31.27;15.37;;;;;;;6.04;100.00;63561.31;5051009;28;20636;-53
2023/12/07 03:00:37;;;;;;;25.20;15.50;;;;;;;6.14;100.00;63572.19;5049861;28;20243;-53
2023/12/07 03:03:02;;;;;;;28.17;15.77;;;;;;;6.17;100.00;63574.94;5051281;28;20256;-56
2023/12/07 03:05:28;;;;;;;25.40;15.17;;;;;;;6.24;100.00;63583.09;5051153;28;20657;-54
2023/12/07 03:07:53;;;;;;;25.77;14.63;;;;;;;6.32;100.00;63594.31;5051274;28;20213;-55
2023/12/07 03:10:19;;;;;;;27.17;16.17;;;;;;;6.36;100.00;63593.66;5050707;28;20229;-53
2023/12/07 03:12:44;;;;;;;24.13;15.20;;;;;;;6.36;100.00;63595.63;5032905;28;20270;-53
2023/12/07 03:15:10;;;;;;;26.43;15.00;;;;;;;6.48;100.00;63609.28;5051206;28;20244;-53
2023/12/07 03:17:36;;;;;;;29.37;16.17;;;;;;;6.44;100.00;63606.88;5050503;28;20213;-53
2023/12/07 03:20:04;;;;;;;25.87;15.00;;;;;;;6.48;100.00;63609.28;5032798;28;20213;-52
2023/12/07 03:22:30;;;;;;;27.53;15.33;;;;;;;6.56;100.00;63618.00;5033400;28;20201;-55
2023/12/07 03:24:55;;;;;;;29.57;16.13;;;;;;;6.57;100.00;63619.06;5049285;28;20637;-53
2023/12/07 03:27:21;;;;;;;24.97;14.73;;;;;;;6.49;100.00;63610.34;5050742;28;20220;-52
2023/12/07 03:29:46;;;;;;;26.50;15.33;;;;;;;6.43;100.00;63603.25;5050708;28;20588;-55
2023/12/07 03:32:11;;;;;;;24.97;14.37;;;;;;;6.40;100.00;63600.53;5050409;28;20216;-53
2023/12/07 03:34:37;;;;;;;23.63;13.47;;;;;;;6.47;100.00;63610.66;5050704;28;20220;-54
2023/12/07 03:37:03;;;;;;;24.53;13.97;;;;;;;6.50;100.00;63613.94;5050535;28;20321;-54
2023/12/07 03:39:31;;;;;;;25.03;14.50;;;;;;;6.55;100.00;63618.84;5050753;28;20676;-55
2023/12/07 03:42:04;;;;;;;22.50;13.77;;;;;;;6.58;100.00;63624.63;5033182;28;20213;-54
2023/12/07 03:44:30;;;;;;;26.47;14.63;;;;;;;6.55;100.00;63616.34;5054301;28;20225;-55
2023/12/07 03:46:56;;;;;;;23.50;13.87;;;;;;;6.46;100.00;63609.59;5053959;28;20202;-53
2023/12/07 03:49:21;;;;;;;21.43;13.47;;;;;;;6.48;100.00;63608.72;5054016;28;20201;-54
2023/12/07 03:51:47;;;;;;;21.23;13.00;;;;;;;6.59;100.00;63621.25;5052481;28;20304;-54
2023/12/07 03:54:12;;;;;;;25.77;14.13;;;;;;;6.51;100.00;63612.53;5053991;28;20201;-54
2023/12/07 03:56:40;;;;;;;23.00;13.47;;;;;;;6.45;100.00;63607.94;5053867;28;20675;-55
2023/12/07 03:59:06;;;;;;;19.40;12.63;;;;;;;6.40;100.00;63600.00;5054041;28;20284;-53
2023/12/07 04:01:32;;;;;;;26.07;14.77;;;;;;;6.43;100.00;63605.75;5035908;28;20276;-54
2023/12/07 04:03:58;;;;;;;26.47;13.13;;;;;;;6.39;100.00;63593.91;5054006;28;20691;-53
2023/12/07 04:06:24;;;;;;;24.33;13.73;;;;;;;6.43;100.00;63603.81;5053758;28;20284;-53
2023/12/07 04:08:51;;;;;;;25.57;13.43;;;;;;;6.35;100.00;63597.03;5052359;28;20225;-53
2023/12/07 04:11:16;;;;;;;24.10;13.43;;;;;;;6.47;100.00;63608.16;5036096;28;20232;-53
2023/12/07 04:13:43;;;;;;;24.03;13.27;;;;;;;6.48;100.00;63609.28;5053925;28;20525;-53
2023/12/07 04:16:09;;;;;;;23.77;14.30;;;;;;;6.58;100.00;63620.16;5054112;28;20201;-53
2023/12/07 04:18:37;;;;;;;22.90;14.37;;;;;;;6.69;100.00;63634.09;5053084;28;20210;-55
2023/12/07 04:21:03;;;;;;;24.70;14.50;;;;;;;6.65;100.00;63627.78;5053351;28;20244;-53
2023/12/07 04:23:28;;;;;;;24.43;13.83;;;;;;;6.59;100.00;63623.75;5053063;28;20717;-54
2023/12/07 04:25:54;;;;;;;24.17;13.37;;;;;;;6.68;100.00;63630.53;5053338;28;20209;-54
2023/12/07 04:28:20;;;;;;;24.47;15.13;;;;;;;6.66;100.00;63626.38;5053077;28;20205;-54
2023/12/07 04:30:45;;;;;;;26.20;14.40;;;;;;;6.43;100.00;63603.25;5053470;28;20283;-53
2023/12/07 04:33:11;;;;;;;26.03;14.80;;;;;;;6.09;100.00;63566.22;5053199;28;20201;-53
2023/12/07 04:35:36;;;;;;;24.50;14.40;;;;;;;6.04;100.00;63563.28;5053511;28;20671;-54
2023/12/07 04:38:02;;;;;;;24.50;14.07;;;;;;;6.10;100.00;63570.34;5053084;28;20271;-54
2023/12/07 04:40:28;;;;;;;24.83;14.47;;;;;;;6.14;100.00;63574.16;5053131;28;20232;-53
2023/12/07 04:42:53;;;;;;;29.13;14.37;;;;;;;6.07;100.00;63561.53;5052984;28;20278;-53
2023/12/07 04:45:19;;;;;;;26.40;14.87;;;;;;;5.98;100.00;63554.75;5053611;28;20217;-54
2023/12/07 04:47:45;;;;;;;25.50;15.97;;;;;;;6.06;100.00;63563.47;5052911;28;20296;-55
2023/12/07 04:50:11;;;;;;;25.53;14.97;;;;;;;6.09;100.00;63568.72;5053252;28;20636;-53
2023/12/07 04:52:36;;;;;;;26.43;14.20;;;;;;;6.28;100.00;63589.44;5034695;28;20756;-54
2023/12/07 04:55:02;;;;;;;29.10;15.53;;;;;;;6.22;100.00;63582.88;5053015;28;20232;-54
2023/12/07 04:57:28;;;;;;;25.37;14.27;;;;;;;6.35;100.00;63592.03;5052905;28;20210;-53
2023/12/07 04:59:53;;;;;;;22.67;13.90;;;;;;;6.22;100.00;63578.41;5052931;28;20685;-54
2023/12/07 05:02:19;;;;;;;23.73;13.60;;;;;;;5.99;100.00;63553.38;5052526;28;20217;-53
2023/12/07 05:04:45;;;;;;;23.43;12.60;;;;;;;5.84;100.00;63540.06;5034835;28;20221;-52
2023/12/07 05:07:11;;;;;;;27.57;15.80;;;;;;;5.97;100.00;63553.13;5052728;28;20240;-54
2023/12/07 05:09:38;;;;;;;24.70;14.53;;;;;;;6.01;100.00;63557.50;5053000;28;20205;-53
2023/12/07 05:12:04;;;;;;;26.30;14.50;;;;;;;5.86;100.00;63541.69;5034622;28;20283;-54
2023/12/07 05:14:31;;;;;;;26.97;14.67;;;;;;;5.85;100.00;63541.16;5034862;28;20217;-54
2023/12/07 05:16:57;;;;;;;26.83;14.57;;;;;;;5.75;100.00;63532.75;5034599;28;20300;-53
2023/12/07 05:19:25;;;;;;;20.43;12.10;;;;;;;5.80;100.00;63537.63;5034906;28;20743;-55
2023/12/07 05:21:51;;;;;;;26.03;13.20;;;;;;;5.81;100.00;63533.75;5052624;28;20213;-54
2023/12/07 05:24:17;;;;;;;20.87;12.70;;;;;;;5.60;100.00;63513.91;5051122;28;20221;-54
2023/12/07 05:26:46;;;;;;;21.80;13.47;;;;;;;5.58;100.00;63511.19;5052378;28;20350;-55
2023/12/07 05:29:11;;;;;;;22.73;13.60;;;;;;;5.63;100.00;63519.13;5034607;28;20205;-53
2023/12/07 05:31:37;;;;;;;24.43;14.37;;;;;;;5.59;100.00;63519.78;5050957;28;20224;-55
2023/12/07 05:34:03;;;;;;;23.20;13.47;;;;;;;5.68;100.00;63524.56;5052432;28;20241;-55
2023/12/07 05:36:29;;;;;;;19.33;13.00;;;;;;;5.53;100.00;63508.25;5052393;28;20213;-55
2023/12/07 05:38:55;;;;;;;22.10;14.30;;;;;;;5.57;100.00;63513.16;5052200;28;20212;-54
2023/12/07 05:41:21;;;;;;;25.00;13.77;;;;;;;5.51;100.00;63504.13;5051994;28;20631;-53
2023/12/07 05:43:48;;;;;;;22.10;13.10;;;;;;;5.48;100.00;63500.28;5050780;28;20305;-53
2023/12/07 05:46:13;;;;;;;20.53;11.97;;;;;;;5.53;100.00;63508.25;5051124;28;20211;-54
2023/12/07 05:48:39;;;;;;;20.50;11.27;;;;;;;5.43;100.00;63492.38;5051976;28;20201;-53
2023/12/07 05:51:05;;;;;;;25.07;13.70;;;;;;;5.41;100.00;63492.69;5051889;28;20267;-55
2023/12/07 05:53:32;;;;;;;22.37;12.17;;;;;;;5.61;100.00;63511.97;5052080;28;20209;-57
2023/12/07 05:55:58;;;;;;;20.77;11.87;;;;;;;8.23;100.00;63801.59;5034030;28;20216;-53
2023/12/07 05:58:24;;;;;;;20.73;13.50;;;;;;;7.81;100.00;63753.22;5051894;28;20217;-52
2023/12/07 06:00:50;;;;;;;20.00;12.13;;;;;;;7.26;100.00;63693.75;5052267;28;20594;-53
2023/12/07 06:03:15;;;;;;;24.20;14.37;;;;;;;6.73;100.00;63634.00;5051890;28;20205;-53
2023/12/07 06:05:41;;;;;;;21.23;11.93;;;;;;;6.44;100.00;63604.34;5051061;28;20219;-54
2023/12/07 06:08:08;;;;;;;22.37;12.03;;;;;;;6.29;100.00;63591.06;5052175;28;20583;-54
2023/12/07 06:10:34;;;;;;;21.80;12.90;;;;;;;6.18;100.00;63579.06;5051634;28;20212;-55
2023/12/07 06:13:00;;;;;;;20.23;12.70;;;;;;;6.04;100.00;63563.81;5051643;28;20695;-55
2023/12/07 06:15:27;;;;;;;23.10;13.03;;;;;;;5.98;100.00;63554.75;5051419;28;20212;-54
2023/12/07 06:17:54;;;;;;;18.80;12.13;;;;;;;5.97;100.00;63555.63;5033679;28;20214;-53
2023/12/07 06:20:20;;;;;;;26.30;13.30;;;;;;;5.89;100.00;63547.47;5051854;28;20189;-54
2023/12/07 06:22:45;;;;;;;24.87;13.97;;;;;;;5.77;100.00;63531.88;5051379;28;20213;-53
2023/12/07 06:25:11;;;;;;;20.40;13.03;;;;;;;5.81;100.00;63539.28;5051788;28;20224;-54
2023/12/07 06:27:37;;;;;;;20.70;12.37;;;;;;;5.87;100.00;63542.78;5051372;28;20357;-53
2023/12/07 06:30:05;;;;;;;24.43;13.93;;;;;;;6.00;100.00;63556.41;5051603;28;20212;-54
2023/12/07 06:32:32;;;;;;;18.83;12.30;;;;;;;6.06;100.00;63562.94;5049712;28;20212;-53
2023/12/07 06:34:58;;;;;;;20.23;12.03;;;;;;;6.07;100.00;63564.03;5050395;28;20201;-55
2023/12/07 06:37:23;;;;;;;19.70;12.17;;;;;;;6.10;100.00;63565.34;5051385;28;20787;-56
2023/12/07 06:39:49;;;;;;;19.53;12.30;;;;;;;5.85;100.00;63541.16;5051666;28;20228;-53
2023/12/07 06:42:15;;;;;;;20.27;12.07;;;;;;;6.21;100.00;63576.78;5051443;28;20205;-58
2023/12/07 06:44:43;;;;;;;22.47;12.70;;;;;;;6.28;100.00;63589.44;5051391;28;20255;-55
2023/12/07 06:47:09;;;;;;;18.23;12.10;;;;;;;6.08;100.00;63565.66;5051025;28;20220;-53
2023/12/07 06:49:35;;;;;;;19.63;12.27;;;;;;;6.20;100.00;63580.72;5051596;28;20706;-56
2023/12/07 06:52:01;;;;;;;20.60;10.80;;;;;;;6.14;100.00;63572.19;5051451;28;20209;-54
2023/12/07 06:54:27;;;;;;;22.87;12.10;;;;;;;6.16;100.00;63576.88;5051249;28;20601;-53
2023/12/07 06:56:53;;;;;;;19.23;11.07;;;;;;;6.12;100.00;63572.00;5051140;28;20221;-53
2023/12/07 06:59:19;;;;;;;21.47;12.47;;;;;;;6.28;100.00;63586.91;5051294;28;20213;-52
2023/12/07 07:01:45;;;;;;;24.30;12.33;;;;;;;6.28;100.00;63587.44;5051031;28;20244;-54
2023/12/07 07:04:11;;;;;;;19.77;11.97;;;;;;;6.35;100.00;63595.09;5033154;28;20300;-53
2023/12/07 07:06:36;;;;;;;16.03;10.67;;;;;;;6.49;100.00;63612.84;5033006;28;20209;-52
2023/12/07 07:09:02;;;;;;;20.30;10.27;;;;;;;6.40;100.00;63600.53;5051184;28;20201;-54
2023/12/07 07:11:30;;;;;;;17.77;10.27;;;;;;;6.39;100.00;63601.41;5050832;28;20282;-54
2023/12/07 07:13:55;;;;;;;15.77;9.40;;;;;;;6.43;100.00;63603.81;5051203;28;20205;-56
2023/12/07 07:16:21;;;;;;;19.90;11.10;;;;;;;6.55;100.00;63616.34;5051214;28;20206;-55
2023/12/07 07:18:46;;;;;;;16.07;10.20;;;;;;;6.48;100.00;63609.28;5050949;28;20220;-55
2023/12/07 07:21:12;;;;;;;15.47;9.50;;;;;;;6.48;100.00;63611.78;5050942;28;20201;-53
2023/12/07 07:23:37;;;;;;;15.77;9.10;;;;;;;6.32;100.00;63589.31;5050516;28;20256;-54
2023/12/07 07:26:03;;;;;;;15.70;9.17;;;;;;;6.24;100.00;63585.06;5050924;28;20228;-55
2023/12/07 07:28:29;;;;;;;20.47;9.53;;;;;;;6.32;100.00;63591.28;5051004;28;20274;-56
2023/12/07 07:30:54;;;;;;;16.57;9.33;;;;;;;6.20;100.00;63578.72;5050578;28;20719;-57
2023/12/07 07:33:20;;;;;;;27.27;12.37;;;;;;;6.12;100.00;63569.50;5050640;28;20267;-54
2023/12/07 07:35:45;;;;;;;20.03;10.93;;;;;;;6.07;100.00;63564.59;5050586;28;20699;-54
2023/12/07 07:38:18;;;;;;;13.93;8.63;;;;;;;6.16;100.00;63576.88;5050963;28;20243;-54
2023/12/07 07:40:45;;;;;;;19.70;10.70;;;;;;;6.07;100.00;63564.59;5050985;28;20331;-54
2023/12/07 07:43:11;;;;;;;17.83;10.20;;;;;;;6.03;100.00;63562.19;5050258;28;20276;-54
2023/12/07 07:45:36;;;;;;;19.40;11.03;;;;;;;6.10;100.00;63567.31;5050156;28;20213;-53
2023/12/07 07:48:02;;;;;;;19.57;11.07;;;;;;;6.26;100.00;63590.28;5050290;28;20194;-55
2023/12/07 07:50:28;;;;;;;14.70;9.97;;;;;;;6.29;100.00;63585.50;5076372;22;20216;-55
2023/12/07 07:52:54;;;;;;;18.87;9.53;;;;;;;6.33;100.00;63592.34;5056691;28;20209;-54
2023/12/07 07:55:20;;;;;;;20.87;11.43;;;;;;;6.19;100.00;63577.66;5050164;28;20201;-56
2023/12/07 07:57:46;;;;;;;17.70;10.83;;;;;;;6.15;100.00;63575.25;5050255;28;20266;-54
2023/12/07 08:00:13;;;;;;;18.00;11.30;;;;;;;6.21;100.00;63582.34;5050427;28;20289;-56
2023/12/07 08:02:38;;;;;;;16.33;9.60;;;;;;;6.31;100.00;63592.69;5050282;28;20240;-55
2023/12/07 08:05:04;;;;;;;15.43;9.77;;;;;;;6.43;100.00;63603.25;5050039;28;20243;-55
2023/12/07 08:07:30;;;;;;;23.53;13.60;;;;;;;6.23;100.00;63584.50;5050316;28;20228;-55
2023/12/07 08:09:55;;;;;;;17.97;9.83;;;;;;;6.10;100.00;63567.31;5050108;28;20671;-55
2023/12/07 08:12:24;;;;;;;13.57;8.90;;;;;;;5.92;100.00;63548.22;5050414;28;20205;-54
2023/12/07 08:14:49;;;;;;;12.97;9.10;;;;;;;5.74;100.00;63528.59;5032297;28;20209;-53
2023/12/07 08:17:15;;;;;;;13.70;8.23;;;;;;;5.66;100.00;63522.94;5050616;28;20576;-53
2023/12/07 08:19:44;;;;;;;16.47;7.63;;;;;;;5.48;100.00;63500.28;5050014;28;20568;-55
2023/12/07 08:22:10;;;;;;;11.50;7.43;;;;;;;5.59;100.00;63512.84;5032360;28;20206;-54
2023/12/07 08:24:37;;;;;;;14.27;8.03;;;;;;;5.64;100.00;63520.75;5050198;28;20256;-55
2023/12/07 08:27:03;;;;;;;9.87;6.60;;;;;;;5.55;100.00;63510.44;5049834;28;20212;-55
2023/12/07 08:29:29;;;;;;;9.60;6.13;;;;;;;5.49;100.00;63503.88;5053225;28;20279;-54
2023/12/07 08:31:54;;;;;;;9.23;5.83;;;;;;;5.46;100.00;63498.13;5053245;28;20694;-54
2023/12/07 08:34:20;;;;;;;13.87;6.43;;;;;;;5.55;100.00;63510.44;5035260;28;20217;-54
2023/12/07 08:36:45;;;;;;;9.10;5.70;;;;;;;5.37;100.00;63488.31;5053168;28;20202;-54
2023/12/07 08:39:11;;;;;;;10.67;5.83;;;;;;;5.31;100.00;63484.28;5053277;28;20777;-55
2023/12/07 08:41:37;;;;;;;8.20;5.30;;;;;;;5.26;100.00;63476.34;5035199;28;20703;-55
2023/12/07 08:44:03;;;;;;;8.77;5.53;;;;;;;5.23;100.00;63475.59;5052907;28;20231;-55
2023/12/07 08:46:29;;;;;;;8.97;5.83;;;;;;;5.17;100.00;63469.06;5053393;28;20549;-55
2023/12/07 08:48:56;;;;;;;8.47;4.87;;;;;;;5.12;100.00;63459.16;5053534;28;20205;-54
2023/12/07 08:51:21;;;;;;;7.27;5.23;;;;;;;5.25;100.00;63475.25;5035025;28;20285;-57
2023/12/07 08:53:47;;;;;;;7.37;4.60;;;;;;;5.29;100.00;63482.13;5053010;28;20659;-56
2023/12/07 08:56:13;;;;;;;7.63;4.73;;;;;;;5.15;100.00;63466.88;5052870;28;20193;-54
2023/12/07 08:58:39;;;;;;;5.83;4.37;;;;;;;5.10;100.00;63462.53;5035190;28;20274;-55
2023/12/07 09:01:05;;;;;;;6.87;4.23;;;;;;;5.00;100.00;63448.59;5052898;28;20686;-56
2023/12/07 09:03:32;;;;;;;5.70;4.43;;;;;;;4.96;100.00;63447.28;5052586;28;20227;-55
2023/12/07 09:06:02;;;;;;;5.37;3.60;;;;;;;4.94;100.00;63444.56;5052600;28;20740;-51
2023/12/07 09:08:27;;;;;;;6.67;3.90;;;;;;;4.93;100.00;63441.53;5052807;28;20212;-54
2023/12/07 09:10:53;;;;;;;6.13;4.00;;;;;;;4.75;100.00;63421.38;5052616;28;20237;-52
2023/12/07 09:13:18;;;;;;;8.27;4.67;;;;;;;4.86;100.00;63431.41;5052802;28;20295;-54
2023/12/07 09:15:44;;;;;;;5.13;3.47;;;;;;;4.77;100.00;63423.56;5052752;28;20225;-55
2023/12/07 09:18:12;;;;;;;4.80;3.50;;;;;;;4.76;100.00;63425.53;5034869;28;20232;-58
2023/12/07 09:20:49;;;;;;;5.77;3.47;;;;;;;4.71;100.00;63419.53;5052614;28;20227;-55
2023/12/07 09:23:15;;;;;;;7.17;4.07;;;;;;;4.67;100.00;63415.72;5052451;28;20213;-58
2023/12/07 09:25:41;;;;;;;4.73;3.33;;;;;;;4.62;100.00;63410.28;5052479;28;20219;-54
2023/12/07 09:28:07;;;;;;;4.83;2.97;;;;;;;4.55;100.00;63400.19;5052195;28;20252;-55
2023/12/07 09:30:33;;;;;;;3.80;3.03;;;;;;;4.57;100.00;63402.34;5052466;28;20589;-55
2023/12/07 09:32:59;;;;;;;5.63;3.63;;;;;;;4.43;100.00;63387.13;5052208;28;20214;-54
2023/12/07 09:35:25;;;;;;;5.53;2.73;;;;;;;4.34;100.00;63379.84;5052261;28;20205;-54
2023/12/07 09:37:51;;;;;;;2.60;2.40;;;;;;;4.24;100.00;63368.97;5052172;28;20205;-56
2023/12/07 09:40:21;;;;;;;3.73;2.60;;;;;;;4.10;100.00;63349.28;5033175;28;20683;-55
2023/12/07 09:42:48;;;;;;;4.97;2.80;;;;;;;4.19;100.00;63363.53;5052138;28;20204;-54
2023/12/07 09:45:16;;;;;;;2.50;2.30;;;;;;;4.23;100.00;63365.94;5052461;28;20692;-52
2023/12/07 09:47:42;;;;;;;3.80;2.83;;;;;;;4.09;100.00;63352.66;5052432;28;20216;-54
2023/12/07 09:50:09;;;;;;;4.57;2.57;;;;;;;4.12;100.00;63350.94;5052584;28;20236;-52
2023/12/07 09:52:35;;;;;;;3.70;2.70;;;;;;;4.20;100.00;63365.16;5051859;28;20673;-54
2023/12/07 09:55:04;;;;;;;2.50;2.00;;;;;;;4.07;100.00;63350.47;5052311;28;20204;-53
2023/12/07 09:57:31;;;;;;;3.73;2.00;;;;;;;3.96;100.00;63336.03;5051591;28;20209;-53
2023/12/07 09:59:57;;;;;;;3.27;2.33;;;;;;;3.77;100.00;63320.91;5033953;28;20211;-52
2023/12/07 10:02:23;;;;;;;3.03;2.30;;;;;;;3.86;100.00;63330.13;5051701;28;20212;-55
2023/12/07 10:05:04;;;;;;;2.30;1.73;;;;;;;3.91;100.00;63333.09;5051884;28;20260;-56
2023/12/07 10:07:39;;;;;;;2.00;1.77;;;;;;;3.84;100.00;63323.53;5033906;28;20233;-55
2023/12/07 10:10:05;;;;;;;3.23;1.60;;;;;;;3.73;100.00;63309.09;5051861;28;20235;-53
2023/12/07 10:12:34;;;;;;;1.73;1.60;;;;;;;3.70;100.00;63310.25;5017360;28;20709;-53
2023/12/07 10:15:13;;;;;;;1.40;1.30;;;;;;;3.71;100.00;63308.84;5051480;28;20348;-53
2023/12/07 10:17:58;;;;;;;1.90;1.60;;;;;;;3.65;100.00;63304.81;5051753;28;20211;-54
2023/12/07 10:20:28;;;;;;;2.40;1.67;;;;;;;3.70;100.00;63307.75;5051535;28;20202;-53
2023/12/07 10:23:02;;;;;;;2.47;1.60;;;;;;;3.67;100.00;63307.00;5051531;28;20213;-52
2023/12/07 10:25:30;;;;;;;2.10;1.23;;;;;;;3.58;100.00;63300.25;5033623;28;20213;-56
2023/12/07 10:27:56;;;;;;;2.13;1.70;;;;;;;3.50;100.00;63288.50;5051494;28;20251;-54
2023/12/07 10:30:25;;;;;;;2.10;1.50;;;;;;;3.43;100.00;63281.47;5051636;28;20221;-55
2023/12/07 10:32:51;;;;;;;1.63;1.33;;;;;;;3.41;100.00;63276.81;5051320;28;20237;-52
2023/12/07 10:35:18;;;;;;;1.90;1.10;;;;;;;3.38;100.00;63276.56;5051309;28;20687;-53
2023/12/07 10:37:44;;;;;;;1.50;1.33;;;;;;;3.31;100.00;63268.44;5051309;28;20267;-54
2023/12/07 10:40:10;;;;;;;1.60;1.50;;;;;;;3.18;100.00;63251.81;5051552;28;20769;-53
2023/12/07 10:42:37;;;;;;;2.20;1.30;;;;;;;3.10;100.00;63246.16;5051461;28;20295;-54
2023/12/07 10:45:06;;;;;;;2.53;1.40;;;;;;;3.10;100.00;63243.13;5033315;28;20226;-55
2023/12/07 10:47:39;;;;;;;1.60;1.20;;;;;;;3.04;100.00;63236.59;5051108;28;20291;-55
2023/12/07 10:50:13;;;;;;;1.57;1.40;;;;;;;2.95;100.00;63229.88;5051235;28;20197;-54
2023/12/07 10:52:51;;;;;;;2.00;1.47;;;;;;;2.90;100.00;63224.44;5051130;28;20209;-53
2023/12/07 10:55:27;;;;;;;3.43;1.30;;;;;;;2.86;100.00;63220.09;5052007;28;20196;-54
2023/12/07 10:57:54;;;;;;;1.47;1.20;;;;;;;2.90;100.00;63221.97;5034414;28;20570;-53
2023/12/07 11:00:23;;;;;;;0.97;0.87;;;;;;;2.89;100.00;63217.84;5033638;28;20233;-53
2023/12/07 11:02:52;;;;;;;1.60;1.50;;;;;;;2.85;100.00;63216.00;5050856;28;20707;-52
2023/12/07 11:05:17;;;;;;;2.17;1.30;;;;;;;2.86;100.00;63219.56;5050994;28;20707;-54
2023/12/07 11:07:54;;;;;;;1.17;1.10;;;;;;;2.81;100.00;63214.13;5051018;28;20212;-53
2023/12/07 11:10:49;;;;;;;2.23;1.30;;;;;;;2.78;100.00;63211.41;5050841;28;20294;-53
2023/12/07 11:13:20;;;;;;;1.80;1.20;;;;;;;2.84;100.00;63217.38;5051056;28;20228;-52
2023/12/07 11:15:46;;;;;;;1.50;1.40;;;;;;;2.68;100.00;63200.56;5050919;28;20170;-55
2023/12/07 11:18:14;;;;;;;1.40;1.30;;;;;;;2.78;100.00;63208.38;5050833;28;20212;-52
2023/12/07 11:20:43;;;;;;;1.50;1.40;;;;;;;2.75;100.00;63202.66;5050578;28;20201;-53
2023/12/07 11:23:09;;;;;;;2.47;1.40;;;;;;;2.77;100.00;63209.78;5050670;28;20248;-53